createdAt,value
2023-03-23T15:59:46.149Z,63.30
2023-03-23T16:04:15.190Z,63.50
2023-03-23T16:08:41.026Z,63.70
2023-03-23T16:13:06.261Z,64.00
2023-03-23T16:17:30.447Z,64.10
2023-03-23T16:21:55.782Z,64.20
2023-03-23T16:26:20.414Z,64.30
2023-03-23T16:30:45.594Z,64.30
2023-03-23T16:35:10.001Z,64.40
2023-03-23T16:39:35.286Z,64.40
2023-03-23T16:43:59.545Z,64.70
2023-03-23T16:48:23.758Z,65.20
2023-03-23T16:52:48.796Z,65.60
2023-03-23T16:57:14.493Z,65.90
2023-03-23T17:01:38.441Z,66.10
2023-03-23T17:06:02.680Z,66.30
2023-03-23T17:10:28.283Z,66.30
2023-03-23T17:14:53.786Z,66.40
2023-03-23T17:19:17.907Z,66.50
2023-03-23T17:23:42.166Z,66.70
2023-03-23T17:28:07.050Z,66.60
2023-03-23T17:32:32.593Z,66.70
2023-03-23T17:36:58.531Z,66.90
2023-03-23T17:41:22.571Z,67.40
2023-03-23T17:45:47.430Z,67.80
2023-03-23T17:50:14.322Z,68.20
2023-03-23T17:54:38.187Z,68.70
2023-03-23T17:59:02.034Z,69.00
2023-03-23T18:03:26.777Z,69.70
2023-03-23T18:07:52.211Z,70.10
2023-03-23T18:12:16.192Z,70.50
2023-03-23T18:16:40.419Z,70.80
2023-03-23T18:21:07.642Z,71.20
2023-03-23T18:25:32.811Z,71.50
2023-03-23T18:29:57.073Z,71.70
2023-03-23T18:34:21.043Z,71.80
2023-03-23T18:38:46.147Z,72.10
2023-03-23T18:43:11.704Z,72.30
2023-03-23T18:47:37.705Z,72.60
2023-03-23T18:52:02.103Z,73.20
2023-03-23T18:56:26.147Z,73.70
2023-03-23T19:00:52.365Z,74.20
2023-03-23T19:05:17.844Z,74.60
2023-03-23T19:09:42.159Z,75.20
2023-03-23T19:14:06.278Z,75.90
2023-03-23T19:18:59.325Z,76.40
2023-03-23T19:23:53.775Z,76.90
2023-03-23T19:32:55.490Z,77.10
2023-03-23T19:37:21.300Z,77.30
2023-03-23T19:41:45.900Z,77.30
2023-03-23T19:46:09.906Z,77.60
2023-03-23T19:50:36.721Z,77.70
2023-03-23T19:55:02.637Z,78.00
2023-03-23T19:59:26.959Z,78.40
2023-03-23T20:03:50.872Z,78.40
2023-03-23T20:08:15.131Z,78.70
2023-03-23T20:12:40.419Z,79.20
2023-03-23T20:17:05.647Z,79.50
2023-03-23T20:21:29.926Z,79.70
2023-03-23T20:25:53.751Z,79.80
2023-03-23T20:30:20.472Z,80.30
2023-03-23T20:34:49.009Z,80.90
2023-03-23T20:39:14.996Z,81.60
2023-03-23T20:43:39.828Z,82.20
2023-03-23T20:48:05.781Z,82.70
2023-03-23T20:52:29.732Z,83.30
2023-03-23T20:56:47.723Z,83.70
2023-03-23T21:01:08.981Z,83.60
2023-03-23T21:05:34.327Z,83.80
2023-03-23T21:09:58.407Z,84.60
2023-03-23T21:14:22.314Z,85.00
2023-03-23T21:18:47.447Z,86.10
2023-03-23T21:23:14.911Z,87.50
2023-03-23T21:27:39.433Z,88.70
2023-03-23T21:36:26.806Z,90.80
2023-03-23T21:40:52.059Z,92.30
2023-03-23T21:45:18.495Z,92.40
2023-03-23T21:49:45.933Z,92.40
2023-03-23T21:54:10.332Z,92.40
2023-03-23T21:58:36.537Z,92.40
2023-03-23T22:03:01.138Z,93.60
2023-03-23T22:07:25.818Z,94.10
2023-03-23T22:11:49.943Z,94.60
2023-03-23T22:16:17.996Z,95.00
2023-03-23T22:20:43.522Z,95.10
2023-03-23T22:25:08.752Z,95.10
2023-03-23T22:29:32.717Z,95.00
2023-03-23T22:33:58.770Z,94.80
2023-03-23T22:38:23.149Z,94.60
2023-03-23T22:42:47.475Z,94.40
2023-03-23T22:47:11.381Z,94.20
2023-03-23T22:51:37.006Z,94.00
2023-03-23T22:56:01.196Z,93.80
2023-03-23T23:00:20.895Z,93.80
2023-03-23T23:04:45.346Z,93.50
2023-03-23T23:09:11.002Z,93.20
2023-03-23T23:13:35.045Z,93.00
2023-03-23T23:17:59.177Z,92.80
2023-03-23T23:22:23.152Z,92.50
2023-03-23T23:26:48.666Z,92.20
2023-03-23T23:31:22.700Z,91.80
2023-03-23T23:35:47.902Z,91.60
2023-03-23T23:40:15.187Z,91.30
2023-03-23T23:44:34.276Z,91.20
2023-03-23T23:48:58.747Z,91.10
2023-03-23T23:53:23.059Z,91.10
2023-03-23T23:57:48.837Z,91.00
